createdAt,value
2018-06-27T00:00:34.433Z,12.10
2018-06-27T00:04:36.643Z,11.17
2018-06-27T00:08:38.848Z,11.30
2018-06-27T00:12:41.048Z,12.87
2018-06-27T00:16:43.260Z,12.70
2018-06-27T00:20:45.452Z,12.50
2018-06-27T00:24:47.632Z,12.67
2018-06-27T00:28:49.835Z,13.10
2018-06-27T00:32:52.045Z,11.83
2018-06-27T00:36:54.289Z,11.60
2018-06-27T00:40:56.476Z,11.60
2018-06-27T00:44:58.667Z,12.73
2018-06-27T00:49:00.864Z,13.27
2018-06-27T00:53:03.092Z,11.83
2018-06-27T00:57:05.308Z,11.60
2018-06-27T01:01:07.484Z,11.77
2018-06-27T01:05:09.667Z,11.37
2018-06-27T01:09:11.835Z,11.13
2018-06-27T01:13:14.205Z,10.20
2018-06-27T01:17:16.388Z,10.27
2018-06-27T01:21:18.605Z,10.87
2018-06-27T01:25:21.130Z,10.13
2018-06-27T01:29:23.339Z,8.80
2018-06-27T01:33:25.513Z,9.27
2018-06-27T01:37:27.700Z,9.67
2018-06-27T01:41:29.860Z,11.10
2018-06-27T01:45:32.072Z,9.80
2018-06-27T01:49:34.288Z,10.20
2018-06-27T01:53:37.285Z,9.03
2018-06-27T01:57:39.468Z,9.53
2018-06-27T02:01:41.777Z,7.77
2018-06-27T02:05:43.976Z,7.83
2018-06-27T02:09:46.368Z,7.70
2018-06-27T02:13:48.700Z,8.00
2018-06-27T02:17:50.923Z,8.67
2018-06-27T02:21:53.109Z,9.07
2018-06-27T02:25:55.283Z,8.53
2018-06-27T02:29:57.463Z,9.00
2018-06-27T02:33:59.648Z,9.97
2018-06-27T02:38:01.857Z,8.60
2018-06-27T02:42:04.065Z,8.20
2018-06-27T02:46:06.276Z,7.80
2018-06-27T02:50:08.468Z,9.83
2018-06-27T02:54:10.647Z,10.87
2018-06-27T02:58:12.852Z,11.70
2018-06-27T03:02:15.043Z,12.37
2018-06-27T03:06:17.287Z,12.10
2018-06-27T03:10:19.583Z,9.90
2018-06-27T03:14:21.978Z,10.60
2018-06-27T03:18:24.165Z,10.70
2018-06-27T03:22:26.389Z,11.17
2018-06-27T03:26:28.612Z,11.57
2018-06-27T03:30:30.841Z,10.83
2018-06-27T03:34:33.025Z,12.07
2018-06-27T03:38:35.392Z,8.27
2018-06-27T03:42:37.574Z,8.03
2018-06-27T03:46:39.767Z,7.53
2018-06-27T03:50:41.952Z,9.03
2018-06-27T03:54:44.147Z,9.70
2018-06-27T03:58:46.399Z,11.23
2018-06-27T04:02:48.628Z,10.87
2018-06-27T04:06:50.820Z,9.50
2018-06-27T04:10:53.000Z,11.70
2018-06-27T04:14:55.225Z,12.30
2018-06-27T04:18:57.419Z,13.67
2018-06-27T04:22:59.632Z,13.33
2018-06-27T04:27:01.876Z,14.73
2018-06-27T04:31:04.064Z,14.37
2018-06-27T04:35:06.263Z,16.83
2018-06-27T04:39:09.624Z,15.37
2018-06-27T04:43:11.891Z,14.10
2018-06-27T04:47:14.020Z,15.30
2018-06-27T04:51:16.228Z,16.30
2018-06-27T04:55:18.437Z,18.10
2018-06-27T04:59:20.616Z,16.40
2018-06-27T05:03:22.809Z,16.17
2018-06-27T05:07:25.027Z,16.17
2018-06-27T05:11:27.196Z,14.87
2018-06-27T05:15:29.424Z,16.47
2018-06-27T05:19:31.633Z,17.80
2018-06-27T05:23:33.800Z,15.50
2018-06-27T05:27:36.220Z,16.10
2018-06-27T05:31:38.188Z,17.10
2018-06-27T05:35:40.364Z,16.67
2018-06-27T05:39:42.588Z,16.07
2018-06-27T05:43:44.765Z,17.40
2018-06-27T05:47:46.940Z,15.00
2018-06-27T05:51:49.196Z,15.97
2018-06-27T05:55:51.399Z,15.50
2018-06-27T05:59:53.552Z,15.40
2018-06-27T06:03:55.748Z,15.57
2018-06-27T06:07:57.943Z,14.57
2018-06-27T06:12:00.120Z,13.40
2018-06-27T06:16:02.320Z,12.83
2018-06-27T06:20:04.517Z,11.80
2018-06-27T06:24:06.824Z,10.97
2018-06-27T06:28:09.072Z,12.63
2018-06-27T06:32:11.319Z,13.67
2018-06-27T06:36:13.516Z,12.90
2018-06-27T06:40:15.684Z,13.90
2018-06-27T06:44:17.888Z,13.50
2018-06-27T06:48:20.123Z,13.33
2018-06-27T06:52:22.303Z,14.73
2018-06-27T06:56:24.516Z,18.37
2018-06-27T07:00:26.718Z,13.23
2018-06-27T07:04:28.902Z,13.60
2018-06-27T07:08:31.102Z,14.20
2018-06-27T07:12:33.291Z,13.47
2018-06-27T07:16:35.569Z,13.57
2018-06-27T07:20:37.757Z,13.20
2018-06-27T07:24:39.968Z,13.23
2018-06-27T07:28:42.286Z,13.60
2018-06-27T07:32:44.452Z,13.20
2018-06-27T07:36:46.652Z,14.27
2018-06-27T07:40:48.875Z,12.87
2018-06-27T07:44:51.177Z,13.23
2018-06-27T07:48:53.575Z,13.33
2018-06-27T07:52:56.028Z,12.53
2018-06-27T07:56:58.245Z,12.17
2018-06-27T08:01:00.462Z,13.27
2018-06-27T08:05:02.668Z,13.67
2018-06-27T08:09:06.768Z,11.77
2018-06-27T08:13:08.972Z,12.77
2018-06-27T08:17:11.188Z,15.27
2018-06-27T08:21:13.404Z,13.83
2018-06-27T08:25:15.618Z,13.43
2018-06-27T08:29:17.805Z,15.00
2018-06-27T08:33:19.987Z,14.77
2018-06-27T08:37:22.169Z,14.53
2018-06-27T08:41:24.392Z,13.90
2018-06-27T08:45:26.580Z,15.10
2018-06-27T08:49:28.768Z,14.30
2018-06-27T08:53:30.996Z,14.70
2018-06-27T08:57:33.184Z,15.40
2018-06-27T09:01:35.429Z,15.77
2018-06-27T09:05:37.636Z,16.07
2018-06-27T09:09:40.097Z,15.47
2018-06-27T09:13:42.305Z,15.33
2018-06-27T09:17:44.511Z,15.37
2018-06-27T09:21:46.728Z,14.30
2018-06-27T09:25:48.936Z,13.67
2018-06-27T09:29:51.125Z,15.30
2018-06-27T09:33:53.804Z,13.43
2018-06-27T09:37:55.984Z,16.47
2018-06-27T09:41:58.292Z,14.67
2018-06-27T09:46:00.435Z,15.80
2018-06-27T09:50:03.080Z,15.93
2018-06-27T09:54:05.285Z,15.30
2018-06-27T09:58:07.501Z,17.87
2018-06-27T10:02:10.385Z,16.67
2018-06-27T10:06:12.517Z,17.67
2018-06-27T10:10:14.716Z,18.50
2018-06-27T10:14:16.896Z,14.37
2018-06-27T10:18:19.104Z,17.13
2018-06-27T10:22:21.330Z,16.07
2018-06-27T10:26:23.475Z,17.10
2018-06-27T10:30:25.712Z,16.30
2018-06-27T10:34:27.904Z,16.47
2018-06-27T10:38:30.114Z,17.17
2018-06-27T10:42:32.309Z,16.73
2018-06-27T10:46:34.925Z,14.63
2018-06-27T10:50:37.130Z,16.70
2018-06-27T10:54:45.069Z,17.20
2018-06-27T10:58:47.252Z,17.20
2018-06-27T11:02:49.429Z,16.97
2018-06-27T11:06:51.609Z,17.60
2018-06-27T11:10:53.853Z,16.07
2018-06-27T11:14:56.056Z,15.37
2018-06-27T11:18:58.311Z,16.17
2018-06-27T11:23:00.496Z,15.33
2018-06-27T11:27:02.739Z,15.53
2018-06-27T11:31:04.957Z,15.60
2018-06-27T11:35:07.165Z,15.20
2018-06-27T11:39:11.217Z,17.37
2018-06-27T11:43:13.440Z,14.80
2018-06-27T11:47:15.700Z,15.10
2018-06-27T11:51:17.901Z,14.50
2018-06-27T11:55:20.140Z,15.70
2018-06-27T11:59:22.383Z,14.07
2018-06-27T12:03:25.382Z,14.03
2018-06-27T12:07:27.576Z,13.63
2018-06-27T12:11:29.769Z,14.30
2018-06-27T12:15:31.952Z,12.90
2018-06-27T12:19:34.229Z,13.47
2018-06-27T12:23:36.528Z,13.83
2018-06-27T12:27:38.700Z,14.77
2018-06-27T12:31:40.992Z,15.50
2018-06-27T12:35:43.172Z,15.47
2018-06-27T12:39:45.400Z,13.47
2018-06-27T12:43:47.611Z,15.73
2018-06-27T12:47:49.860Z,15.93
2018-06-27T12:51:52.080Z,15.37
2018-06-27T12:55:54.268Z,12.60
2018-06-27T12:59:56.820Z,12.80
2018-06-27T13:03:59.160Z,14.70
2018-06-27T13:08:01.312Z,16.27
2018-06-27T13:12:03.540Z,15.07
2018-06-27T13:16:05.740Z,11.13
2018-06-27T13:20:07.964Z,11.80
2018-06-27T13:24:10.160Z,11.30
2018-06-27T13:28:12.809Z,11.60
2018-06-27T13:32:14.985Z,12.40
2018-06-27T13:36:17.181Z,13.43
2018-06-27T13:40:19.377Z,12.80
2018-06-27T13:44:21.560Z,12.37
2018-06-27T13:48:23.732Z,13.33
2018-06-27T13:52:25.920Z,11.90
2018-06-27T13:56:28.130Z,13.20
2018-06-27T14:00:30.337Z,11.50
2018-06-27T14:04:32.700Z,11.40
2018-06-27T14:08:34.893Z,9.93
2018-06-27T14:12:37.076Z,10.07
